sensor_id;sensor_type;location;lat;lon;timestamp;P1;durP1;ratioP1;P2;durP2;ratioP2
71679;SDS011;59512;42.662;23.254;2022-10-31T00:00:49;8.45;;;3.40;;
71679;SDS011;59512;42.662;23.254;2022-10-31T00:03:15;10.00;;;3.87;;
71679;SDS011;59512;42.662;23.254;2022-10-31T00:05:42;8.55;;;3.28;;
71679;SDS011;59512;42.662;23.254;2022-10-31T00:08:08;8.82;;;3.15;;
71679;SDS011;59512;42.662;23.254;2022-10-31T00:10:36;6.43;;;2.60;;
71679;SDS011;59512;42.662;23.254;2022-10-31T00:13:02;6.95;;;2.90;;
71679;SDS011;59512;42.662;23.254;2022-10-31T00:15:28;7.30;;;3.10;;
71679;SDS011;59512;42.662;23.254;2022-10-31T00:17:53;7.90;;;2.90;;
71679;SDS011;59512;42.662;23.254;2022-10-31T00:20:18;7.03;;;2.73;;
71679;SDS011;59512;42.662;23.254;2022-10-31T00:22:44;9.33;;;3.20;;
71679;SDS011;59512;42.662;23.254;2022-10-31T00:25:09;9.88;;;2.72;;
71679;SDS011;59512;42.662;23.254;2022-10-31T00:27:35;6.07;;;2.30;;
71679;SDS011;59512;42.662;23.254;2022-10-31T00:30:00;8.40;;;2.90;;
71679;SDS011;59512;42.662;23.254;2022-10-31T00:32:28;7.70;;;2.93;;
71679;SDS011;59512;42.662;23.254;2022-10-31T00:34:54;7.85;;;2.72;;
71679;SDS011;59512;42.662;23.254;2022-10-31T00:37:20;6.73;;;2.70;;
71679;SDS011;59512;42.662;23.254;2022-10-31T00:39:45;10.10;;;3.03;;
71679;SDS011;59512;42.662;23.254;2022-10-31T00:42:12;8.63;;;2.65;;
71679;SDS011;59512;42.662;23.254;2022-10-31T00:44:38;6.33;;;2.70;;
71679;SDS011;59512;42.662;23.254;2022-10-31T00:47:03;7.83;;;2.87;;
71679;SDS011;59512;42.662;23.254;2022-10-31T00:49:28;8.70;;;3.05;;
71679;SDS011;59512;42.662;23.254;2022-10-31T00:51:54;10.87;;;3.20;;
71679;SDS011;59512;42.662;23.254;2022-10-31T00:54:19;8.43;;;3.10;;
71679;SDS011;59512;42.662;23.254;2022-10-31T00:56:44;7.60;;;3.13;;
71679;SDS011;59512;42.662;23.254;2022-10-31T00:59:10;7.23;;;3.00;;
71679;SDS011;59512;42.662;23.254;2022-10-31T01:01:35;7.50;;;2.97;;
71679;SDS011;59512;42.662;23.254;2022-10-31T01:04:01;6.90;;;2.70;;
71679;SDS011;59512;42.662;23.254;2022-10-31T01:06:26;6.80;;;2.83;;
71679;SDS011;59512;42.662;23.254;2022-10-31T01:08:51;7.43;;;3.00;;
71679;SDS011;59512;42.662;23.254;2022-10-31T01:11:18;9.47;;;3.43;;
71679;SDS011;59512;42.662;23.254;2022-10-31T01:13:45;8.88;;;3.05;;
71679;SDS011;59512;42.662;23.254;2022-10-31T01:16:13;7.82;;;2.88;;
71679;SDS011;59512;42.662;23.254;2022-10-31T01:18:39;7.53;;;2.63;;
71679;SDS011;59512;42.662;23.254;2022-10-31T01:23:35;11.93;;;3.05;;
71679;SDS011;59512;42.662;23.254;2022-10-31T01:26:02;9.80;;;2.93;;
71679;SDS011;59512;42.662;23.254;2022-10-31T01:28:33;8.15;;;3.28;;
71679;SDS011;59512;42.662;23.254;2022-10-31T01:31:00;8.10;;;3.10;;
71679;SDS011;59512;42.662;23.254;2022-10-31T01:33:26;9.80;;;3.60;;
71679;SDS011;59512;42.662;23.254;2022-10-31T01:35:52;7.20;;;3.20;;
71679;SDS011;59512;42.662;23.254;2022-10-31T01:38:17;8.77;;;3.43;;
71679;SDS011;59512;42.662;23.254;2022-10-31T01:40:42;8.20;;;3.40;;
71679;SDS011;59512;42.662;23.254;2022-10-31T01:43:17;9.20;;;3.50;;
71679;SDS011;59512;42.662;23.254;2022-10-31T01:45:43;8.30;;;3.42;;
71679;SDS011;59512;42.662;23.254;2022-10-31T01:48:14;12.20;;;4.20;;
71679;SDS011;59512;42.662;23.254;2022-10-31T01:50:41;10.05;;;3.95;;
71679;SDS011;59512;42.662;23.254;2022-10-31T01:53:08;11.20;;;3.80;;
71679;SDS011;59512;42.662;23.254;2022-10-31T01:55:37;10.80;;;3.97;;
71679;SDS011;59512;42.662;23.254;2022-10-31T01:58:07;9.57;;;4.35;;
71679;SDS011;59512;42.662;23.254;2022-10-31T02:00:35;13.15;;;4.30;;
71679;SDS011;59512;42.662;23.254;2022-10-31T02:03:00;9.60;;;4.27;;
71679;SDS011;59512;42.662;23.254;2022-10-31T02:05:27;10.87;;;4.27;;
71679;SDS011;59512;42.662;23.254;2022-10-31T02:10:22;11.68;;;4.15;;
71679;SDS011;59512;42.662;23.254;2022-10-31T02:12:49;10.82;;;4.07;;
71679;SDS011;59512;42.662;23.254;2022-10-31T02:15:16;11.30;;;4.10;;
71679;SDS011;59512;42.662;23.254;2022-10-31T02:17:41;12.43;;;4.20;;
71679;SDS011;59512;42.662;23.254;2022-10-31T02:20:17;9.57;;;3.90;;
71679;SDS011;59512;42.662;23.254;2022-10-31T02:23:12;10.45;;;4.13;;
71679;SDS011;59512;42.662;23.254;2022-10-31T02:34:22;9.20;;;4.28;;
71679;SDS011;59512;42.662;23.254;2022-10-31T02:36:56;11.13;;;4.40;;
71679;SDS011;59512;42.662;23.254;2022-10-31T02:39:25;13.88;;;4.88;;
71679;SDS011;59512;42.662;23.254;2022-10-31T02:41:57;8.73;;;4.13;;
71679;SDS011;59512;42.662;23.254;2022-10-31T02:47:03;10.80;;;3.50;;
71679;SDS011;59512;42.662;23.254;2022-10-31T02:52:17;10.50;;;3.20;;
71679;SDS011;59512;42.662;23.254;2022-10-31T02:54:44;9.43;;;3.23;;
71679;SDS011;59512;42.662;23.254;2022-10-31T02:57:11;9.40;;;3.42;;
71679;SDS011;59512;42.662;23.254;2022-10-31T02:59:37;9.15;;;3.42;;
71679;SDS011;59512;42.662;23.254;2022-10-31T03:02:09;9.10;;;3.60;;
71679;SDS011;59512;42.662;23.254;2022-10-31T03:04:52;8.90;;;4.25;;
71679;SDS011;59512;42.662;23.254;2022-10-31T03:10:09;13.63;;;5.75;;
71679;SDS011;59512;42.662;23.254;2022-10-31T03:12:39;10.32;;;3.92;;
71679;SDS011;59512;42.662;23.254;2022-10-31T03:20:16;10.25;;;3.90;;
71679;SDS011;59512;42.662;23.254;2022-10-31T03:22:45;8.23;;;3.83;;
71679;SDS011;59512;42.662;23.254;2022-10-31T03:25:11;8.98;;;3.88;;
71679;SDS011;59512;42.662;23.254;2022-10-31T03:27:38;10.77;;;3.70;;
71679;SDS011;59512;42.662;23.254;2022-10-31T03:30:04;8.38;;;4.38;;
71679;SDS011;59512;42.662;23.254;2022-10-31T03:32:42;10.90;;;4.45;;
71679;SDS011;59512;42.662;23.254;2022-10-31T03:35:11;11.18;;;4.45;;
71679;SDS011;59512;42.662;23.254;2022-10-31T03:37:37;11.00;;;3.93;;
71679;SDS011;59512;42.662;23.254;2022-10-31T03:40:05;10.65;;;4.60;;
71679;SDS011;59512;42.662;23.254;2022-10-31T03:42:33;10.02;;;4.10;;
71679;SDS011;59512;42.662;23.254;2022-10-31T03:45:04;10.57;;;4.07;;
71679;SDS011;59512;42.662;23.254;2022-10-31T03:47:32;10.98;;;4.25;;
71679;SDS011;59512;42.662;23.254;2022-10-31T03:50:01;13.60;;;4.97;;
71679;SDS011;59512;42.662;23.254;2022-10-31T03:52:28;11.25;;;4.85;;
71679;SDS011;59512;42.662;23.254;2022-10-31T03:54:58;11.40;;;5.13;;
71679;SDS011;59512;42.662;23.254;2022-10-31T03:57:27;10.27;;;4.73;;
71679;SDS011;59512;42.662;23.254;2022-10-31T04:00:09;9.45;;;4.03;;
71679;SDS011;59512;42.662;23.254;2022-10-31T04:02:40;11.68;;;5.28;;
71679;SDS011;59512;42.662;23.254;2022-10-31T04:05:07;13.85;;;5.60;;
71679;SDS011;59512;42.662;23.254;2022-10-31T04:07:35;15.60;;;6.50;;
71679;SDS011;59512;42.662;23.254;2022-10-31T04:10:04;13.17;;;5.60;;
71679;SDS011;59512;42.662;23.254;2022-10-31T04:12:32;13.68;;;5.78;;
71679;SDS011;59512;42.662;23.254;2022-10-31T04:14:59;11.80;;;5.45;;
71679;SDS011;59512;42.662;23.254;2022-10-31T04:17:27;12.15;;;4.90;;
71679;SDS011;59512;42.662;23.254;2022-10-31T04:19:55;9.63;;;4.75;;
71679;SDS011;59512;42.662;23.254;2022-10-31T04:22:20;10.87;;;4.70;;
71679;SDS011;59512;42.662;23.254;2022-10-31T04:24:45;10.33;;;4.97;;
71679;SDS011;59512;42.662;23.254;2022-10-31T04:27:11;9.30;;;4.50;;
71679;SDS011;59512;42.662;23.254;2022-10-31T04:29:36;9.33;;;4.23;;
71679;SDS011;59512;42.662;23.254;2022-10-31T04:32:02;11.30;;;5.10;;
71679;SDS011;59512;42.662;23.254;2022-10-31T04:34:27;9.80;;;4.10;;
71679;SDS011;59512;42.662;23.254;2022-10-31T04:36:53;11.17;;;4.73;;
71679;SDS011;59512;42.662;23.254;2022-10-31T04:39:18;11.53;;;4.83;;
71679;SDS011;59512;42.662;23.254;2022-10-31T04:41:43;13.37;;;5.40;;
71679;SDS011;59512;42.662;23.254;2022-10-31T04:44:09;11.67;;;5.03;;
71679;SDS011;59512;42.662;23.254;2022-10-31T04:46:34;10.02;;;4.70;;
71679;SDS011;59512;42.662;23.254;2022-10-31T04:49:00;13.68;;;5.75;;
71679;SDS011;59512;42.662;23.254;2022-10-31T04:51:25;12.90;;;5.40;;
71679;SDS011;59512;42.662;23.254;2022-10-31T04:53:50;10.90;;;4.70;;
71679;SDS011;59512;42.662;23.254;2022-10-31T04:56:16;14.70;;;5.13;;
71679;SDS011;59512;42.662;23.254;2022-10-31T04:58:41;13.87;;;4.83;;
71679;SDS011;59512;42.662;23.254;2022-10-31T05:01:07;13.45;;;5.07;;
71679;SDS011;59512;42.662;23.254;2022-10-31T05:03:32;10.77;;;5.75;;
71679;SDS011;59512;42.662;23.254;2022-10-31T05:05:57;11.43;;;5.27;;
71679;SDS011;59512;42.662;23.254;2022-10-31T05:08:23;15.47;;;5.17;;
71679;SDS011;59512;42.662;23.254;2022-10-31T05:10:48;10.67;;;5.13;;
71679;SDS011;59512;42.662;23.254;2022-10-31T05:13:14;15.50;;;5.65;;
71679;SDS011;59512;42.662;23.254;2022-10-31T05:15:40;13.00;;;5.70;;
71679;SDS011;59512;42.662;23.254;2022-10-31T05:18:06;11.88;;;5.65;;
71679;SDS011;59512;42.662;23.254;2022-10-31T05:20:31;15.60;;;6.30;;
71679;SDS011;59512;42.662;23.254;2022-10-31T05:22:57;15.23;;;6.63;;
71679;SDS011;59512;42.662;23.254;2022-10-31T05:25:23;15.95;;;6.97;;
71679;SDS011;59512;42.662;23.254;2022-10-31T05:27:51;14.73;;;6.43;;
71679;SDS011;59512;42.662;23.254;2022-10-31T05:30:20;21.65;;;9.10;;
71679;SDS011;59512;42.662;23.254;2022-10-31T05:32:50;21.23;;;8.07;;
71679;SDS011;59512;42.662;23.254;2022-10-31T05:35:20;22.35;;;10.15;;
71679;SDS011;59512;42.662;23.254;2022-10-31T05:37:47;19.83;;;8.43;;
71679;SDS011;59512;42.662;23.254;2022-10-31T05:40:13;20.00;;;8.20;;
71679;SDS011;59512;42.662;23.254;2022-10-31T05:42:40;17.88;;;7.70;;
71679;SDS011;59512;42.662;23.254;2022-10-31T05:45:12;15.45;;;8.23;;
71679;SDS011;59512;42.662;23.254;2022-10-31T05:47:41;15.38;;;6.50;;
71679;SDS011;59512;42.662;23.254;2022-10-31T05:50:07;15.03;;;7.00;;
71679;SDS011;59512;42.662;23.254;2022-10-31T05:52:33;13.82;;;6.95;;
71679;SDS011;59512;42.662;23.254;2022-10-31T05:54:59;21.97;;;9.40;;
71679;SDS011;59512;42.662;23.254;2022-10-31T05:57:25;18.17;;;9.00;;
71679;SDS011;59512;42.662;23.254;2022-10-31T05:59:50;20.67;;;8.80;;
71679;SDS011;59512;42.662;23.254;2022-10-31T06:02:19;17.85;;;9.05;;
71679;SDS011;59512;42.662;23.254;2022-10-31T06:04:45;15.67;;;8.43;;
71679;SDS011;59512;42.662;23.254;2022-10-31T06:07:10;23.20;;;9.07;;
71679;SDS011;59512;42.662;23.254;2022-10-31T06:09:35;24.87;;;10.13;;
71679;SDS011;59512;42.662;23.254;2022-10-31T06:12:01;19.47;;;10.57;;
71679;SDS011;59512;42.662;23.254;2022-10-31T06:14:26;19.13;;;9.30;;
71679;SDS011;59512;42.662;23.254;2022-10-31T06:16:53;15.77;;;9.30;;
71679;SDS011;59512;42.662;23.254;2022-10-31T06:19:19;18.23;;;9.55;;
71679;SDS011;59512;42.662;23.254;2022-10-31T06:21:45;20.67;;;11.10;;
71679;SDS011;59512;42.662;23.254;2022-10-31T06:24:10;24.63;;;10.77;;
71679;SDS011;59512;42.662;23.254;2022-10-31T06:26:35;21.93;;;11.20;;
71679;SDS011;59512;42.662;23.254;2022-10-31T06:29:01;20.37;;;11.10;;
71679;SDS011;59512;42.662;23.254;2022-10-31T06:31:26;22.50;;;11.15;;
71679;SDS011;59512;42.662;23.254;2022-10-31T06:33:52;28.27;;;11.47;;
71679;SDS011;59512;42.662;23.254;2022-10-31T06:36:17;23.03;;;11.60;;
71679;SDS011;59512;42.662;23.254;2022-10-31T06:38:42;33.93;;;12.10;;
71679;SDS011;59512;42.662;23.254;2022-10-31T06:41:08;23.50;;;12.43;;
71679;SDS011;59512;42.662;23.254;2022-10-31T06:43:33;23.13;;;11.07;;
71679;SDS011;59512;42.662;23.254;2022-10-31T06:46:01;19.67;;;11.95;;
71679;SDS011;59512;42.662;23.254;2022-10-31T06:48:28;25.93;;;12.00;;
71679;SDS011;59512;42.662;23.254;2022-10-31T06:50:56;22.45;;;12.32;;
71679;SDS011;59512;42.662;23.254;2022-10-31T06:53:23;23.67;;;12.17;;
71679;SDS011;59512;42.662;23.254;2022-10-31T06:55:49;23.48;;;12.20;;
71679;SDS011;59512;42.662;23.254;2022-10-31T06:58:15;22.83;;;13.07;;
71679;SDS011;59512;42.662;23.254;2022-10-31T07:00:40;24.05;;;11.40;;
71679;SDS011;59512;42.662;23.254;2022-10-31T07:03:09;24.73;;;13.17;;
71679;SDS011;59512;42.662;23.254;2022-10-31T07:05:36;23.48;;;12.57;;
71679;SDS011;59512;42.662;23.254;2022-10-31T07:08:03;23.87;;;11.33;;
71679;SDS011;59512;42.662;23.254;2022-10-31T07:10:31;21.80;;;11.48;;
71679;SDS011;59512;42.662;23.254;2022-10-31T07:12:58;23.38;;;11.77;;
71679;SDS011;59512;42.662;23.254;2022-10-31T07:15:25;28.30;;;12.63;;
71679;SDS011;59512;42.662;23.254;2022-10-31T07:17:51;22.20;;;12.13;;
71679;SDS011;59512;42.662;23.254;2022-10-31T07:20:17;23.13;;;12.63;;
71679;SDS011;59512;42.662;23.254;2022-10-31T07:22:43;24.65;;;12.25;;
71679;SDS011;59512;42.662;23.254;2022-10-31T07:25:09;20.60;;;11.87;;
71679;SDS011;59512;42.662;23.254;2022-10-31T07:27:36;20.85;;;12.75;;
71679;SDS011;59512;42.662;23.254;2022-10-31T07:30:02;23.52;;;12.20;;
71679;SDS011;59512;42.662;23.254;2022-10-31T07:32:28;27.60;;;12.73;;
71679;SDS011;59512;42.662;23.254;2022-10-31T07:35:06;22.80;;;12.63;;
71679;SDS011;59512;42.662;23.254;2022-10-31T07:37:32;19.10;;;11.85;;
71679;SDS011;59512;42.662;23.254;2022-10-31T07:39:58;20.30;;;12.40;;
71679;SDS011;59512;42.662;23.254;2022-10-31T07:42:23;25.85;;;13.35;;
71679;SDS011;59512;42.662;23.254;2022-10-31T07:44:49;25.87;;;13.07;;
71679;SDS011;59512;42.662;23.254;2022-10-31T07:47:14;24.33;;;12.50;;
71679;SDS011;59512;42.662;23.254;2022-10-31T07:49:39;26.30;;;13.90;;
71679;SDS011;59512;42.662;23.254;2022-10-31T07:52:05;25.57;;;13.13;;
71679;SDS011;59512;42.662;23.254;2022-10-31T07:54:30;23.02;;;13.25;;
71679;SDS011;59512;42.662;23.254;2022-10-31T07:56:56;26.98;;;13.82;;
71679;SDS011;59512;42.662;23.254;2022-10-31T07:59:21;21.13;;;11.37;;
71679;SDS011;59512;42.662;23.254;2022-10-31T08:01:46;24.07;;;12.10;;
71679;SDS011;59512;42.662;23.254;2022-10-31T08:04:12;22.60;;;11.10;;
71679;SDS011;59512;42.662;23.254;2022-10-31T08:06:37;25.03;;;11.23;;
71679;SDS011;59512;42.662;23.254;2022-10-31T08:09:03;18.63;;;10.35;;
71679;SDS011;59512;42.662;23.254;2022-10-31T08:11:28;16.47;;;9.53;;
71679;SDS011;59512;42.662;23.254;2022-10-31T08:13:53;22.90;;;10.27;;
71679;SDS011;59512;42.662;23.254;2022-10-31T08:16:19;19.20;;;9.97;;
71679;SDS011;59512;42.662;23.254;2022-10-31T08:18:44;22.27;;;9.00;;
71679;SDS011;59512;42.662;23.254;2022-10-31T08:21:09;18.52;;;9.50;;
71679;SDS011;59512;42.662;23.254;2022-10-31T08:23:35;19.13;;;9.60;;
71679;SDS011;59512;42.662;23.254;2022-10-31T08:26:01;17.07;;;9.17;;
71679;SDS011;59512;42.662;23.254;2022-10-31T08:28:26;20.57;;;9.07;;
71679;SDS011;59512;42.662;23.254;2022-10-31T08:30:51;16.08;;;9.40;;
71679;SDS011;59512;42.662;23.254;2022-10-31T08:33:17;18.20;;;8.60;;
71679;SDS011;59512;42.662;23.254;2022-10-31T08:35:43;14.43;;;8.35;;
71679;SDS011;59512;42.662;23.254;2022-10-31T08:38:10;15.20;;;8.57;;
71679;SDS011;59512;42.662;23.254;2022-10-31T08:40:36;21.63;;;9.13;;
71679;SDS011;59512;42.662;23.254;2022-10-31T08:43:03;17.02;;;8.65;;
71679;SDS011;59512;42.662;23.254;2022-10-31T08:45:30;16.80;;;8.67;;
71679;SDS011;59512;42.662;23.254;2022-10-31T08:48:00;19.45;;;9.27;;
71679;SDS011;59512;42.662;23.254;2022-10-31T08:50:27;16.95;;;8.20;;
71679;SDS011;59512;42.662;23.254;2022-10-31T08:52:53;16.95;;;7.80;;
71679;SDS011;59512;42.662;23.254;2022-10-31T08:55:18;19.10;;;7.80;;
71679;SDS011;59512;42.662;23.254;2022-10-31T08:57:44;16.83;;;7.43;;
71679;SDS011;59512;42.662;23.254;2022-10-31T09:00:09;21.98;;;8.35;;
71679;SDS011;59512;42.662;23.254;2022-10-31T09:02:35;16.23;;;7.40;;
71679;SDS011;59512;42.662;23.254;2022-10-31T09:05:02;14.68;;;7.50;;
71679;SDS011;59512;42.662;23.254;2022-10-31T09:07:27;15.05;;;7.35;;
71679;SDS011;59512;42.662;23.254;2022-10-31T09:09:53;14.37;;;7.07;;
71679;SDS011;59512;42.662;23.254;2022-10-31T09:12:18;12.50;;;6.83;;
71679;SDS011;59512;42.662;23.254;2022-10-31T09:14:44;14.60;;;6.87;;
71679;SDS011;59512;42.662;23.254;2022-10-31T09:17:09;18.73;;;7.47;;
71679;SDS011;59512;42.662;23.254;2022-10-31T09:19:34;18.13;;;7.18;;
71679;SDS011;59512;42.662;23.254;2022-10-31T09:22:01;14.20;;;7.60;;
71679;SDS011;59512;42.662;23.254;2022-10-31T09:24:26;14.07;;;7.47;;
71679;SDS011;59512;42.662;23.254;2022-10-31T09:26:52;15.23;;;6.93;;
71679;SDS011;59512;42.662;23.254;2022-10-31T09:29:17;13.17;;;7.57;;
71679;SDS011;59512;42.662;23.254;2022-10-31T09:31:42;16.43;;;7.30;;
71679;SDS011;59512;42.662;23.254;2022-10-31T09:34:08;14.97;;;7.13;;
71679;SDS011;59512;42.662;23.254;2022-10-31T09:36:33;14.60;;;7.25;;
71679;SDS011;59512;42.662;23.254;2022-10-31T09:38:58;14.20;;;6.40;;
71679;SDS011;59512;42.662;23.254;2022-10-31T09:52:38;15.70;;;6.03;;
71679;SDS011;59512;42.662;23.254;2022-10-31T09:55:19;13.15;;;6.30;;
71679;SDS011;59512;42.662;23.254;2022-10-31T09:57:50;14.40;;;5.60;;
71679;SDS011;59512;42.662;23.254;2022-10-31T10:00:17;11.73;;;5.47;;
71679;SDS011;59512;42.662;23.254;2022-10-31T10:02:46;11.73;;;5.60;;
71679;SDS011;59512;42.662;23.254;2022-10-31T10:05:28;10.00;;;4.78;;
71679;SDS011;59512;42.662;23.254;2022-10-31T10:07:58;14.52;;;6.15;;
71679;SDS011;59512;42.662;23.254;2022-10-31T10:18:59;8.85;;;3.35;;
71679;SDS011;59512;42.662;23.254;2022-10-31T10:21:39;9.45;;;3.50;;
71679;SDS011;59512;42.662;23.254;2022-10-31T10:24:44;6.93;;;2.97;;
71679;SDS011;59512;42.662;23.254;2022-10-31T10:27:41;9.93;;;3.42;;
71679;SDS011;59512;42.662;23.254;2022-10-31T10:30:17;8.75;;;2.85;;
71679;SDS011;59512;42.662;23.254;2022-10-31T10:32:46;9.07;;;3.10;;
71679;SDS011;59512;42.662;23.254;2022-10-31T10:35:29;7.53;;;2.92;;
71679;SDS011;59512;42.662;23.254;2022-10-31T10:37:58;6.97;;;3.17;;
71679;SDS011;59512;42.662;23.254;2022-10-31T10:40:27;11.88;;;3.45;;
71679;SDS011;59512;42.662;23.254;2022-10-31T10:45:51;9.75;;;3.05;;
71679;SDS011;59512;42.662;23.254;2022-10-31T10:48:45;7.20;;;2.83;;
71679;SDS011;59512;42.662;23.254;2022-10-31T10:51:19;7.93;;;3.00;;
71679;SDS011;59512;42.662;23.254;2022-10-31T10:53:50;10.70;;;4.05;;
71679;SDS011;59512;42.662;23.254;2022-10-31T10:56:36;8.07;;;3.40;;
71679;SDS011;59512;42.662;23.254;2022-10-31T10:59:09;12.93;;;2.85;;
71679;SDS011;59512;42.662;23.254;2022-10-31T11:01:37;9.15;;;2.60;;
71679;SDS011;59512;42.662;23.254;2022-10-31T11:04:05;6.67;;;2.40;;
71679;SDS011;59512;42.662;23.254;2022-10-31T11:06:57;9.07;;;2.45;;
71679;SDS011;59512;42.662;23.254;2022-10-31T11:09:33;7.20;;;2.40;;
71679;SDS011;59512;42.662;23.254;2022-10-31T11:11:59;6.05;;;1.88;;
71679;SDS011;59512;42.662;23.254;2022-10-31T11:14:26;8.43;;;2.58;;
71679;SDS011;59512;42.662;23.254;2022-10-31T11:17:06;7.97;;;2.60;;
71679;SDS011;59512;42.662;23.254;2022-10-31T11:19:34;7.15;;;2.42;;
71679;SDS011;59512;42.662;23.254;2022-10-31T11:22:07;8.45;;;1.90;;
71679;SDS011;59512;42.662;23.254;2022-10-31T11:24:39;7.38;;;2.50;;
71679;SDS011;59512;42.662;23.254;2022-10-31T11:27:13;5.97;;;1.95;;
71679;SDS011;59512;42.662;23.254;2022-10-31T11:29:45;7.45;;;2.60;;
71679;SDS011;59512;42.662;23.254;2022-10-31T11:32:16;8.90;;;2.30;;
71679;SDS011;59512;42.662;23.254;2022-10-31T11:34:44;7.30;;;2.78;;
71679;SDS011;59512;42.662;23.254;2022-10-31T11:37:21;10.60;;;2.45;;
71679;SDS011;59512;42.662;23.254;2022-10-31T11:39:52;10.35;;;2.80;;
71679;SDS011;59512;42.662;23.254;2022-10-31T11:42:22;7.68;;;2.55;;
71679;SDS011;59512;42.662;23.254;2022-10-31T11:44:55;10.77;;;2.95;;
71679;SDS011;59512;42.662;23.254;2022-10-31T11:47:30;9.55;;;2.92;;
71679;SDS011;59512;42.662;23.254;2022-10-31T11:49:57;9.50;;;2.80;;
71679;SDS011;59512;42.662;23.254;2022-10-31T11:52:27;8.05;;;2.72;;
71679;SDS011;59512;42.662;23.254;2022-10-31T11:54:59;11.30;;;2.87;;
71679;SDS011;59512;42.662;23.254;2022-10-31T11:57:33;7.57;;;2.67;;
71679;SDS011;59512;42.662;23.254;2022-10-31T12:02:50;6.50;;;2.65;;
71679;SDS011;59512;42.662;23.254;2022-10-31T12:07:47;8.20;;;2.67;;
71679;SDS011;59512;42.662;23.254;2022-10-31T12:10:14;8.40;;;2.58;;
71679;SDS011;59512;42.662;23.254;2022-10-31T12:12:54;12.00;;;3.17;;
71679;SDS011;59512;42.662;23.254;2022-10-31T12:15:33;6.60;;;2.40;;
71679;SDS011;59512;42.662;23.254;2022-10-31T12:26:15;7.25;;;2.50;;
71679;SDS011;59512;42.662;23.254;2022-10-31T12:28:47;9.30;;;2.93;;
71679;SDS011;59512;42.662;23.254;2022-10-31T12:42:29;12.67;;;3.20;;
71679;SDS011;59512;42.662;23.254;2022-10-31T12:48:24;13.27;;;3.45;;
71679;SDS011;59512;42.662;23.254;2022-10-31T12:53:54;11.30;;;2.90;;
71679;SDS011;59512;42.662;23.254;2022-10-31T12:56:41;8.53;;;3.20;;
71679;SDS011;59512;42.662;23.254;2022-10-31T12:59:31;9.75;;;3.47;;
71679;SDS011;59512;42.662;23.254;2022-10-31T13:02:02;8.10;;;3.10;;
71679;SDS011;59512;42.662;23.254;2022-10-31T13:04:39;12.25;;;3.70;;
71679;SDS011;59512;42.662;23.254;2022-10-31T13:07:10;12.38;;;3.38;;
71679;SDS011;59512;42.662;23.254;2022-10-31T13:09:53;11.10;;;3.20;;
71679;SDS011;59512;42.662;23.254;2022-10-31T13:12:39;8.70;;;3.03;;
71679;SDS011;59512;42.662;23.254;2022-10-31T13:15:11;9.00;;;3.05;;
71679;SDS011;59512;42.662;23.254;2022-10-31T13:17:42;11.02;;;2.55;;
71679;SDS011;59512;42.662;23.254;2022-10-31T13:20:23;7.80;;;2.83;;
71679;SDS011;59512;42.662;23.254;2022-10-31T13:22:51;11.52;;;2.67;;
71679;SDS011;59512;42.662;23.254;2022-10-31T13:25:21;10.57;;;3.03;;
71679;SDS011;59512;42.662;23.254;2022-10-31T13:27:59;9.70;;;2.55;;
71679;SDS011;59512;42.662;23.254;2022-10-31T13:30:33;8.45;;;2.78;;
71679;SDS011;59512;42.662;23.254;2022-10-31T13:33:13;8.00;;;3.20;;
71679;SDS011;59512;42.662;23.254;2022-10-31T13:44:18;8.63;;;2.97;;
71679;SDS011;59512;42.662;23.254;2022-10-31T13:46:52;6.70;;;2.70;;
71679;SDS011;59512;42.662;23.254;2022-10-31T13:49:40;10.85;;;2.92;;
71679;SDS011;59512;42.662;23.254;2022-10-31T13:54:38;7.38;;;2.65;;
71679;SDS011;59512;42.662;23.254;2022-10-31T13:57:29;10.00;;;2.67;;
71679;SDS011;59512;42.662;23.254;2022-10-31T14:00:22;9.07;;;2.90;;
71679;SDS011;59512;42.662;23.254;2022-10-31T14:02:53;9.38;;;2.72;;
71679;SDS011;59512;42.662;23.254;2022-10-31T14:05:31;8.10;;;2.80;;
71679;SDS011;59512;42.662;23.254;2022-10-31T14:07:58;8.77;;;2.75;;
71679;SDS011;59512;42.662;23.254;2022-10-31T14:10:29;9.43;;;2.95;;
71679;SDS011;59512;42.662;23.254;2022-10-31T14:15:29;6.28;;;2.28;;
71679;SDS011;59512;42.662;23.254;2022-10-31T14:17:56;11.18;;;3.05;;
71679;SDS011;59512;42.662;23.254;2022-10-31T14:28:56;8.65;;;2.47;;
71679;SDS011;59512;42.662;23.254;2022-10-31T14:37:07;8.93;;;2.85;;
71679;SDS011;59512;42.662;23.254;2022-10-31T14:42:51;16.55;;;3.55;;
71679;SDS011;59512;42.662;23.254;2022-10-31T14:45:37;8.82;;;2.90;;
71679;SDS011;59512;42.662;23.254;2022-10-31T14:50:50;8.77;;;2.90;;
71679;SDS011;59512;42.662;23.254;2022-10-31T14:55:48;9.57;;;3.28;;
71679;SDS011;59512;42.662;23.254;2022-10-31T14:58:17;9.13;;;2.80;;
71679;SDS011;59512;42.662;23.254;2022-10-31T15:00:48;11.50;;;3.00;;
71679;SDS011;59512;42.662;23.254;2022-10-31T15:06:12;13.43;;;3.88;;
71679;SDS011;59512;42.662;23.254;2022-10-31T15:08:46;12.10;;;3.33;;
71679;SDS011;59512;42.662;23.254;2022-10-31T15:13:50;12.33;;;3.57;;
71679;SDS011;59512;42.662;23.254;2022-10-31T15:16:24;12.85;;;3.40;;
71679;SDS011;59512;42.662;23.254;2022-10-31T15:18:57;14.60;;;4.03;;
71679;SDS011;59512;42.662;23.254;2022-10-31T15:21:26;13.70;;;3.40;;
71679;SDS011;59512;42.662;23.254;2022-10-31T15:23:56;13.20;;;3.10;;
71679;SDS011;59512;42.662;23.254;2022-10-31T15:26:24;10.53;;;3.40;;
71679;SDS011;59512;42.662;23.254;2022-10-31T15:29:03;12.45;;;3.30;;
71679;SDS011;59512;42.662;23.254;2022-10-31T15:31:38;11.85;;;3.25;;
71679;SDS011;59512;42.662;23.254;2022-10-31T15:34:05;8.60;;;3.27;;
71679;SDS011;59512;42.662;23.254;2022-10-31T15:36:36;9.73;;;3.25;;
71679;SDS011;59512;42.662;23.254;2022-10-31T15:39:02;10.90;;;3.07;;
71679;SDS011;59512;42.662;23.254;2022-10-31T15:46:53;13.80;;;4.50;;
71679;SDS011;59512;42.662;23.254;2022-10-31T15:51:53;10.15;;;4.03;;
71679;SDS011;59512;42.662;23.254;2022-10-31T15:54:18;16.43;;;5.90;;
71679;SDS011;59512;42.662;23.254;2022-10-31T15:56:44;17.83;;;6.40;;
71679;SDS011;59512;42.662;23.254;2022-10-31T15:59:11;23.70;;;6.53;;
71679;SDS011;59512;42.662;23.254;2022-10-31T16:01:53;17.10;;;6.43;;
71679;SDS011;59512;42.662;23.254;2022-10-31T16:04:25;15.73;;;6.25;;
71679;SDS011;59512;42.662;23.254;2022-10-31T16:07:24;21.92;;;5.90;;
71679;SDS011;59512;42.662;23.254;2022-10-31T16:09:53;17.57;;;7.33;;
71679;SDS011;59512;42.662;23.254;2022-10-31T16:12:20;17.42;;;6.47;;
71679;SDS011;59512;42.662;23.254;2022-10-31T16:14:46;21.23;;;6.10;;
71679;SDS011;59512;42.662;23.254;2022-10-31T16:17:16;18.55;;;6.40;;
71679;SDS011;59512;42.662;23.254;2022-10-31T16:19:46;21.87;;;8.37;;
71679;SDS011;59512;42.662;23.254;2022-10-31T16:22:21;19.90;;;8.55;;
71679;SDS011;59512;42.662;23.254;2022-10-31T16:24:51;15.85;;;7.00;;
71679;SDS011;59512;42.662;23.254;2022-10-31T16:27:25;16.50;;;6.57;;
71679;SDS011;59512;42.662;23.254;2022-10-31T16:29:54;24.27;;;8.73;;
71679;SDS011;59512;42.662;23.254;2022-10-31T16:32:28;20.13;;;8.50;;
71679;SDS011;59512;42.662;23.254;2022-10-31T16:37:32;16.67;;;7.28;;
71679;SDS011;59512;42.662;23.254;2022-10-31T16:39:58;21.17;;;7.57;;
71679;SDS011;59512;42.662;23.254;2022-10-31T16:42:23;19.83;;;7.77;;
71679;SDS011;59512;42.662;23.254;2022-10-31T16:44:49;17.77;;;7.53;;
71679;SDS011;59512;42.662;23.254;2022-10-31T16:47:16;19.63;;;7.80;;